createdAt,value
2022-08-17T00:00:12.799Z,10.40
2022-08-17T00:03:01.078Z,9.68
2022-08-17T00:05:32.183Z,10.13
2022-08-17T00:08:00.366Z,9.82
2022-08-17T00:10:28.573Z,9.88
2022-08-17T00:12:59.104Z,10.32
2022-08-17T00:15:28.822Z,9.88
2022-08-17T00:17:56.782Z,10.32
2022-08-17T00:20:33.437Z,10.57
2022-08-17T00:23:04.353Z,9.40
2022-08-17T00:25:32.281Z,9.35
2022-08-17T00:28:00.406Z,9.18
2022-08-17T00:30:30.224Z,9.70
2022-08-17T00:33:19.093Z,9.50
2022-08-17T00:35:47.708Z,10.00
2022-08-17T00:38:16.125Z,8.88
2022-08-17T00:40:45.503Z,9.27
2022-08-17T00:43:17.624Z,9.85
2022-08-17T00:45:48.786Z,9.00
2022-08-17T00:48:28.845Z,10.00
2022-08-17T00:50:59.651Z,9.43
2022-08-17T00:53:28.474Z,8.73
2022-08-17T00:55:56.682Z,9.30
2022-08-17T00:58:30.386Z,9.55
2022-08-17T01:01:06.684Z,9.02
2022-08-17T01:03:37.557Z,8.60
2022-08-17T01:06:06.686Z,8.60
2022-08-17T01:08:35.537Z,9.40
2022-08-17T01:11:05.507Z,9.10
2022-08-17T01:13:40.749Z,9.27
2022-08-17T01:16:13.059Z,9.30
2022-08-17T01:18:42.281Z,9.55
2022-08-17T01:21:12.649Z,9.45
2022-08-17T01:23:42.534Z,9.75
2022-08-17T01:26:10.501Z,9.27
2022-08-17T01:28:54.857Z,9.40
2022-08-17T01:31:25.114Z,10.23
2022-08-17T01:33:53.250Z,9.10
2022-08-17T01:36:21.240Z,9.40
2022-08-17T01:38:50.588Z,9.20
2022-08-17T01:41:18.670Z,9.02
2022-08-17T01:43:48.950Z,9.13
2022-08-17T01:46:18.162Z,9.90
2022-08-17T01:48:47.733Z,8.75
2022-08-17T01:51:16.803Z,9.05
2022-08-17T01:53:47.588Z,8.88
2022-08-17T01:56:18.347Z,9.25
2022-08-17T01:58:47.126Z,9.23
2022-08-17T02:01:15.543Z,10.23
2022-08-17T02:03:59.095Z,8.68
2022-08-17T02:06:29.249Z,9.52
2022-08-17T02:09:02.566Z,9.57
2022-08-17T02:11:33.258Z,9.68
2022-08-17T02:14:02.868Z,9.07
2022-08-17T02:16:37.695Z,9.05
2022-08-17T02:19:07.302Z,10.98
2022-08-17T02:21:35.795Z,9.90
2022-08-17T02:24:05.826Z,9.98
2022-08-17T02:26:35.326Z,9.43
2022-08-17T02:29:04.281Z,9.93
2022-08-17T02:31:32.329Z,10.50
2022-08-17T02:34:04.784Z,10.18
2022-08-17T02:36:34.158Z,11.32
2022-08-17T02:39:02.441Z,9.68
2022-08-17T02:41:30.585Z,9.27
2022-08-17T02:44:00.027Z,10.25
2022-08-17T02:46:28.118Z,10.55
2022-08-17T02:48:56.056Z,10.73
2022-08-17T02:51:23.986Z,10.70
2022-08-17T02:53:52.049Z,10.63
2022-08-17T02:56:22.497Z,10.27
2022-08-17T02:58:50.601Z,11.13
2022-08-17T03:01:20.512Z,10.27
2022-08-17T03:03:48.417Z,9.85
2022-08-17T03:06:16.818Z,9.93
2022-08-17T03:08:44.829Z,10.38
2022-08-17T03:11:12.705Z,10.63
2022-08-17T03:13:40.621Z,10.20
2022-08-17T03:16:10.105Z,11.50
2022-08-17T03:18:39.441Z,10.18
2022-08-17T03:21:09.264Z,11.35
2022-08-17T03:23:41.341Z,10.73
2022-08-17T03:26:12.286Z,10.95
2022-08-17T03:28:43.730Z,10.85
2022-08-17T03:31:11.628Z,8.88
2022-08-17T03:33:41.381Z,10.50
2022-08-17T03:36:09.953Z,9.80
2022-08-17T03:38:39.388Z,9.48
2022-08-17T03:41:07.702Z,9.55
2022-08-17T03:43:35.845Z,9.52
2022-08-17T03:46:34.581Z,10.48
2022-08-17T03:49:22.529Z,10.85
2022-08-17T03:52:19.681Z,10.48
2022-08-17T03:55:05.162Z,10.35
2022-08-17T03:57:33.570Z,9.85
2022-08-17T04:00:01.646Z,10.20
2022-08-17T04:02:32.161Z,11.32
2022-08-17T04:05:01.851Z,11.52
2022-08-17T04:07:31.953Z,11.63
2022-08-17T04:10:00.326Z,13.73
2022-08-17T04:12:31.120Z,11.52
2022-08-17T04:14:59.408Z,20.27
2022-08-17T04:17:28.979Z,13.27
2022-08-17T04:19:56.994Z,14.43
2022-08-17T04:22:31.183Z,13.43
2022-08-17T04:25:01.887Z,13.35
2022-08-17T04:27:35.142Z,14.38
2022-08-17T04:30:03.437Z,13.35
2022-08-17T04:33:05.270Z,14.18
2022-08-17T04:35:23.124Z,13.95
2022-08-17T04:37:52.789Z,15.02
2022-08-17T04:40:39.133Z,15.45
2022-08-17T04:43:08.491Z,16.35
2022-08-17T04:45:40.414Z,15.20
2022-08-17T04:48:23.014Z,15.05
2022-08-17T04:53:24.997Z,16.52
2022-08-17T04:55:53.137Z,17.35
2022-08-17T04:58:21.528Z,17.65
2022-08-17T05:00:49.577Z,16.90
2022-08-17T05:03:17.537Z,18.05
2022-08-17T05:05:49.787Z,17.00
2022-08-17T05:08:19.029Z,18.15
2022-08-17T05:10:48.699Z,19.60
2022-08-17T05:13:17.702Z,20.38
2022-08-17T05:15:47.829Z,19.88
2022-08-17T05:18:17.616Z,21.50
2022-08-17T05:20:46.133Z,21.40
2022-08-17T05:23:16.061Z,20.10
2022-08-17T05:25:47.451Z,21.30
2022-08-17T05:28:17.908Z,19.98
2022-08-17T05:30:48.669Z,22.63
2022-08-17T05:33:19.663Z,20.38
2022-08-17T05:35:49.033Z,21.98
2022-08-17T05:38:18.033Z,23.70
2022-08-17T05:40:46.382Z,21.60
2022-08-17T05:43:15.673Z,22.67
2022-08-17T05:45:55.147Z,25.67
2022-08-17T05:48:39.765Z,24.52
2022-08-17T05:51:32.004Z,22.60
2022-08-17T05:54:08.234Z,24.40
2022-08-17T05:56:45.191Z,24.15
2022-08-17T05:59:21.989Z,24.38
2022-08-17T06:01:57.818Z,24.15
2022-08-17T06:04:28.461Z,25.35
2022-08-17T06:06:59.632Z,24.90
2022-08-17T06:09:35.585Z,22.85
2022-08-17T06:12:07.618Z,22.33
2022-08-17T06:14:48.674Z,22.63
2022-08-17T06:17:23.186Z,23.55
2022-08-17T06:19:52.484Z,23.60
2022-08-17T06:22:24.017Z,22.45
2022-08-17T06:24:54.326Z,21.73
2022-08-17T06:27:24.722Z,20.48
2022-08-17T06:29:55.135Z,19.63
2022-08-17T06:32:25.166Z,20.08
2022-08-17T06:34:53.816Z,17.40
2022-08-17T06:37:31.286Z,17.30
2022-08-17T06:40:03.869Z,16.45
2022-08-17T06:43:02.438Z,15.63
2022-08-17T06:45:32.161Z,13.75
2022-08-17T06:48:05.954Z,14.55
2022-08-17T06:50:37.009Z,12.98
2022-08-17T06:53:06.675Z,13.75
2022-08-17T06:55:38.420Z,12.85
2022-08-17T06:58:09.394Z,11.77
2022-08-17T07:00:46.303Z,10.90
2022-08-17T07:03:21.348Z,11.15
2022-08-17T07:05:52.881Z,9.50
2022-08-17T07:08:29.700Z,8.63
2022-08-17T07:11:02.538Z,8.95
2022-08-17T07:13:34.720Z,9.60
2022-08-17T07:16:08.694Z,8.80
2022-08-17T07:18:38.097Z,8.65
2022-08-17T07:21:14.155Z,7.20
2022-08-17T07:23:51.006Z,7.68
2022-08-17T07:26:18.998Z,7.40
2022-08-17T07:28:47.030Z,6.75
2022-08-17T07:31:17.623Z,6.60
2022-08-17T07:34:01.733Z,7.07
2022-08-17T07:36:33.992Z,6.47
2022-08-17T07:39:03.017Z,6.60
2022-08-17T07:41:57.896Z,5.40
2022-08-17T07:44:23.523Z,6.60
2022-08-17T07:47:10.091Z,6.35
2022-08-17T07:49:40.866Z,5.75
2022-08-17T07:52:47.537Z,6.30
2022-08-17T07:54:58.826Z,5.15
2022-08-17T07:57:35.468Z,6.72
2022-08-17T08:00:32.803Z,6.10
2022-08-17T08:03:03.577Z,5.82
2022-08-17T08:05:49.744Z,5.75
2022-08-17T08:08:29.528Z,5.43
2022-08-17T08:11:02.911Z,5.32
2022-08-17T08:13:33.503Z,6.03
2022-08-17T08:16:15.880Z,6.05
2022-08-17T08:18:54.051Z,5.78
2022-08-17T08:21:34.529Z,5.72
2022-08-17T08:24:07.060Z,5.82
2022-08-17T08:26:41.280Z,6.50
2022-08-17T08:29:13.160Z,4.82
2022-08-17T08:31:48.742Z,5.45
2022-08-17T08:35:00.513Z,5.10
2022-08-17T08:37:20.675Z,5.63
2022-08-17T08:39:58.914Z,5.30
2022-08-17T08:42:31.629Z,5.63
2022-08-17T08:45:05.615Z,5.55
2022-08-17T08:47:51.665Z,5.25
2022-08-17T08:50:37.290Z,4.72
2022-08-17T08:53:13.414Z,5.07
2022-08-17T08:55:48.794Z,5.05
2022-08-17T08:58:30.702Z,4.60
2022-08-17T09:01:16.994Z,4.47
2022-08-17T09:04:17.002Z,4.20
2022-08-17T09:06:56.761Z,4.32
2022-08-17T09:09:29.374Z,5.45
2022-08-17T09:14:45.263Z,4.38
2022-08-17T09:17:16.553Z,4.45
2022-08-17T09:19:49.512Z,5.97
2022-08-17T09:22:23.235Z,6.43
2022-08-17T09:24:57.296Z,5.28
2022-08-17T09:27:28.316Z,5.35
2022-08-17T09:29:58.475Z,5.88
2022-08-17T09:32:29.700Z,4.70
2022-08-17T09:35:01.538Z,5.88
2022-08-17T09:37:35.016Z,6.30
2022-08-17T09:40:10.721Z,6.35
2022-08-17T09:42:42.335Z,5.47
2022-08-17T09:45:17.512Z,5.53
2022-08-17T09:47:50.031Z,5.70
2022-08-17T09:51:03.609Z,5.22
2022-08-17T09:53:10.077Z,6.18
2022-08-17T09:55:51.353Z,5.85
2022-08-17T09:58:29.131Z,6.38
2022-08-17T10:01:02.232Z,6.03
2022-08-17T10:03:40.142Z,6.30
2022-08-17T10:06:13.379Z,6.57
2022-08-17T10:08:47.050Z,6.30
2022-08-17T10:11:22.469Z,6.65
2022-08-17T10:14:36.093Z,5.65
2022-08-17T10:17:02.138Z,5.75
2022-08-17T10:19:36.000Z,8.23
2022-08-17T10:22:34.524Z,6.55
2022-08-17T10:25:23.711Z,6.43
2022-08-17T10:27:56.705Z,6.20
2022-08-17T10:30:28.023Z,7.20
2022-08-17T10:33:00.010Z,6.80
2022-08-17T10:35:34.244Z,7.10
2022-08-17T10:38:28.568Z,7.97
2022-08-17T10:40:59.200Z,8.25
2022-08-17T10:43:35.305Z,7.88
2022-08-17T10:46:09.259Z,8.93
2022-08-17T10:49:24.346Z,9.07
2022-08-17T10:51:54.607Z,8.05
2022-08-17T10:54:37.507Z,8.27
2022-08-17T10:57:24.587Z,9.10
2022-08-17T10:59:54.347Z,9.48
2022-08-17T11:02:28.234Z,9.30
2022-08-17T11:05:04.959Z,9.27
2022-08-17T11:07:51.038Z,9.35
2022-08-17T11:10:26.939Z,9.45
2022-08-17T11:13:01.645Z,10.45
2022-08-17T11:15:38.265Z,11.75
2022-08-17T11:18:16.892Z,9.88
2022-08-17T11:20:57.158Z,10.48
2022-08-17T11:23:31.022Z,10.80
2022-08-17T11:26:04.059Z,9.70
2022-08-17T11:28:36.037Z,9.55
2022-08-17T11:31:09.105Z,11.75
2022-08-17T11:33:52.630Z,12.18
2022-08-17T11:36:25.977Z,10.57
2022-08-17T11:38:58.178Z,9.88
2022-08-17T11:41:30.482Z,11.23
2022-08-17T11:44:04.317Z,9.80
2022-08-17T11:46:51.673Z,9.93
2022-08-17T11:49:39.313Z,10.40
2022-08-17T11:52:15.770Z,11.15
2022-08-17T11:54:48.622Z,10.43
2022-08-17T11:57:35.060Z,9.95
2022-08-17T12:00:10.641Z,10.20
2022-08-17T12:02:47.757Z,10.38
2022-08-17T12:05:40.261Z,10.27
2022-08-17T12:08:12.138Z,9.45
2022-08-17T12:10:49.946Z,8.85
2022-08-17T12:13:20.122Z,9.32
2022-08-17T12:15:49.863Z,9.90
2022-08-17T12:18:23.347Z,10.10
2022-08-17T12:21:00.849Z,11.25
2022-08-17T12:23:50.308Z,11.35
2022-08-17T12:26:19.660Z,11.50
2022-08-17T12:28:49.093Z,11.77
2022-08-17T12:31:19.113Z,12.48
2022-08-17T12:33:50.119Z,12.48
2022-08-17T12:36:20.047Z,11.38
2022-08-17T12:38:51.506Z,11.50
2022-08-17T12:41:30.941Z,9.52
2022-08-17T12:44:01.797Z,8.18
2022-08-17T12:46:30.395Z,8.63
2022-08-17T12:49:13.778Z,10.23
2022-08-17T12:51:44.313Z,8.80
2022-08-17T12:54:22.769Z,8.07
2022-08-17T12:56:50.685Z,8.43
2022-08-17T12:59:30.184Z,7.55
2022-08-17T13:01:58.980Z,7.47
2022-08-17T13:04:29.519Z,7.70
2022-08-17T13:07:00.326Z,7.35
2022-08-17T13:09:35.246Z,7.97
2022-08-17T13:12:08.230Z,8.00
2022-08-17T13:14:36.560Z,7.93
2022-08-17T13:17:09.892Z,7.13
2022-08-17T13:19:48.751Z,6.70
2022-08-17T13:22:16.858Z,7.05
2022-08-17T13:24:53.361Z,7.55
2022-08-17T13:27:22.438Z,7.65
2022-08-17T13:29:53.957Z,9.30
2022-08-17T13:32:23.305Z,8.18
2022-08-17T13:35:12.454Z,7.50
2022-08-17T13:38:02.701Z,7.70
2022-08-17T13:40:32.602Z,6.30
2022-08-17T13:43:03.447Z,6.78
2022-08-17T13:45:38.973Z,7.00
2022-08-17T13:48:14.059Z,7.30
2022-08-17T13:50:45.280Z,7.20
2022-08-17T13:53:17.676Z,6.97
2022-08-17T13:55:48.949Z,7.10
2022-08-17T13:58:20.967Z,7.60
2022-08-17T14:00:50.802Z,7.40
2022-08-17T14:03:19.412Z,7.70
2022-08-17T14:05:50.251Z,12.45
2022-08-17T14:08:19.119Z,8.40
2022-08-17T14:10:50.755Z,7.57
2022-08-17T14:13:18.893Z,7.17
2022-08-17T14:15:56.125Z,7.85
2022-08-17T14:18:35.649Z,7.13
2022-08-17T14:21:14.565Z,6.65
2022-08-17T14:23:54.558Z,6.20
2022-08-17T14:26:23.238Z,7.00
2022-08-17T14:28:56.339Z,6.25
2022-08-17T14:31:25.117Z,7.10
2022-08-17T14:33:53.360Z,7.35
2022-08-17T14:36:22.740Z,6.47
2022-08-17T14:38:50.645Z,7.38
2022-08-17T14:41:22.035Z,8.13
2022-08-17T14:43:50.602Z,7.13
2022-08-17T14:46:18.538Z,6.90
2022-08-17T14:48:47.120Z,7.38
2022-08-17T14:51:15.022Z,7.35
2022-08-17T14:53:45.946Z,7.22
2022-08-17T14:56:14.026Z,7.43
2022-08-17T14:58:42.649Z,6.75
2022-08-17T15:01:11.084Z,8.30
2022-08-17T15:03:41.063Z,6.55
2022-08-17T15:06:09.666Z,6.85
2022-08-17T15:08:37.678Z,7.07
2022-08-17T15:11:07.237Z,6.70
2022-08-17T15:13:52.388Z,7.50
2022-08-17T15:16:21.061Z,6.82
2022-08-17T15:18:49.212Z,7.10
2022-08-17T15:21:18.294Z,7.25
2022-08-17T15:23:47.955Z,11.85
2022-08-17T15:26:18.514Z,7.80
2022-08-17T15:28:52.200Z,6.40
2022-08-17T15:31:32.355Z,6.47
2022-08-17T15:34:00.676Z,7.20
2022-08-17T15:36:28.714Z,6.63
2022-08-17T15:38:58.911Z,6.45
2022-08-17T15:41:35.925Z,7.72
2022-08-17T15:44:03.985Z,7.43
2022-08-17T15:46:33.844Z,7.60
2022-08-17T15:49:03.401Z,7.05
2022-08-17T15:51:32.648Z,6.20
2022-08-17T15:54:04.479Z,6.90
2022-08-17T15:56:48.888Z,6.47
2022-08-17T15:59:17.032Z,7.13
2022-08-17T16:03:15.145Z,7.50
2022-08-17T16:04:33.889Z,8.18
2022-08-17T16:07:01.865Z,6.80
2022-08-17T16:09:29.853Z,7.93
2022-08-17T16:11:59.361Z,7.10
2022-08-17T16:14:34.013Z,6.72
2022-08-17T16:17:03.412Z,6.65
2022-08-17T16:19:31.550Z,7.60
2022-08-17T16:21:59.568Z,7.82
2022-08-17T16:24:27.762Z,12.07
2022-08-17T16:26:56.278Z,7.25
2022-08-17T16:29:25.945Z,8.95
2022-08-17T16:31:54.184Z,6.65
2022-08-17T16:34:22.098Z,6.30
2022-08-17T16:36:55.636Z,6.82
2022-08-17T16:39:25.498Z,8.32
2022-08-17T16:41:53.509Z,8.23
2022-08-17T16:44:22.129Z,7.25
2022-08-17T16:46:51.736Z,6.97
2022-08-17T16:49:35.169Z,7.13
2022-08-17T16:52:07.366Z,7.32
2022-08-17T16:54:36.037Z,8.50
2022-08-17T16:57:05.440Z,7.35
2022-08-17T16:59:42.588Z,7.32
2022-08-17T17:02:15.849Z,7.97
2022-08-17T17:04:46.968Z,7.03
2022-08-17T17:07:25.884Z,9.18
2022-08-17T17:09:55.786Z,10.20
2022-08-17T17:13:01.076Z,12.18
2022-08-17T17:15:13.068Z,15.98
2022-08-17T17:17:44.045Z,16.88
2022-08-17T17:20:15.588Z,18.40
2022-08-17T17:22:48.090Z,10.80
2022-08-17T17:25:19.088Z,13.00
2022-08-17T17:27:51.597Z,12.13
2022-08-17T17:30:22.753Z,11.65
2022-08-17T17:32:57.765Z,9.02
2022-08-17T17:35:27.544Z,13.50
2022-08-17T17:37:57.616Z,10.15
2022-08-17T17:40:26.775Z,9.95
2022-08-17T17:42:56.474Z,9.55
2022-08-17T17:45:26.125Z,9.70
2022-08-17T17:47:56.738Z,10.25
2022-08-17T17:50:29.308Z,11.77
2022-08-17T17:53:00.614Z,10.70
2022-08-17T17:55:36.882Z,10.40
2022-08-17T17:58:10.469Z,9.18
2022-08-17T18:00:40.116Z,9.77
2022-08-17T18:03:22.013Z,7.82
2022-08-17T18:05:55.829Z,10.35
2022-08-17T18:08:36.355Z,9.65
2022-08-17T18:11:14.685Z,8.70
2022-08-17T18:13:58.840Z,8.30
2022-08-17T18:16:28.601Z,8.20
2022-08-17T18:19:01.493Z,8.83
2022-08-17T18:21:33.595Z,8.50
2022-08-17T18:24:02.531Z,9.13
2022-08-17T18:26:38.151Z,9.25
2022-08-17T18:29:14.265Z,9.73
2022-08-17T18:31:42.381Z,7.80
2022-08-17T18:34:45.763Z,8.55
2022-08-17T18:37:11.758Z,9.70
2022-08-17T18:39:44.297Z,9.20
2022-08-17T18:42:30.808Z,9.15
2022-08-17T18:44:58.795Z,8.75
2022-08-17T18:47:27.600Z,9.23
2022-08-17T18:49:58.024Z,9.75
2022-08-17T18:52:28.205Z,10.05
2022-08-17T18:55:01.968Z,9.95
2022-08-17T18:57:34.804Z,9.38
2022-08-17T19:00:03.219Z,12.00
2022-08-17T19:02:45.083Z,8.70
2022-08-17T19:05:28.267Z,10.63
2022-08-17T19:08:14.870Z,8.73
2022-08-17T19:10:46.808Z,7.40
2022-08-17T19:13:23.973Z,8.75
2022-08-17T19:16:13.027Z,9.27
2022-08-17T19:18:49.064Z,8.90
2022-08-17T19:21:22.809Z,8.93
2022-08-17T19:23:54.588Z,7.35
2022-08-17T19:26:54.333Z,7.95
2022-08-17T19:29:16.314Z,7.93
2022-08-17T19:31:47.704Z,8.73
2022-08-17T19:34:17.297Z,8.65
2022-08-17T19:37:07.051Z,9.68
2022-08-17T19:39:38.237Z,8.63
2022-08-17T19:42:21.726Z,9.68
2022-08-17T19:44:56.692Z,9.10
2022-08-17T19:47:53.756Z,9.90
2022-08-17T19:50:23.974Z,8.98
2022-08-17T19:52:55.888Z,9.45
2022-08-17T19:55:30.502Z,8.73
2022-08-17T19:58:03.649Z,10.57
2022-08-17T20:00:36.323Z,10.30
2022-08-17T20:03:08.271Z,9.48
2022-08-17T20:06:08.548Z,9.45
2022-08-17T20:08:33.130Z,8.90
2022-08-17T20:11:03.822Z,10.43
2022-08-17T20:13:35.015Z,10.38
2022-08-17T20:16:03.562Z,9.75
2022-08-17T20:18:33.293Z,10.02
2022-08-17T20:21:03.073Z,9.85
2022-08-17T20:23:36.889Z,9.52
2022-08-17T20:26:09.434Z,10.48
2022-08-17T20:28:39.117Z,9.15
2022-08-17T20:31:22.051Z,10.35
2022-08-17T20:33:49.966Z,10.77
2022-08-17T20:36:19.398Z,11.05
2022-08-17T20:38:50.530Z,10.65
2022-08-17T20:41:20.958Z,9.95
2022-08-17T20:44:03.148Z,9.57
2022-08-17T20:46:42.566Z,10.63
2022-08-17T20:49:16.634Z,10.15
2022-08-17T20:52:00.801Z,12.18
2022-08-17T20:54:42.999Z,11.73
2022-08-17T20:57:19.453Z,10.80
2022-08-17T21:00:17.800Z,9.82
2022-08-17T21:02:46.779Z,10.40
2022-08-17T21:05:36.975Z,10.45
2022-08-17T21:08:17.015Z,10.77
2022-08-17T21:10:47.273Z,10.15
2022-08-17T21:13:32.154Z,10.25
2022-08-17T21:16:03.122Z,9.68
2022-08-17T21:18:38.749Z,10.20
2022-08-17T21:21:17.623Z,9.75
2022-08-17T21:24:03.510Z,9.90
2022-08-17T21:26:35.748Z,11.23
2022-08-17T21:29:31.731Z,9.07
2022-08-17T21:32:24.261Z,9.48
2022-08-17T21:35:11.147Z,9.75
2022-08-17T21:37:42.037Z,9.82
2022-08-17T21:40:22.657Z,9.93
2022-08-17T21:42:55.890Z,9.55
2022-08-17T21:45:27.740Z,9.80
2022-08-17T21:48:11.338Z,10.23
2022-08-17T21:50:41.770Z,9.10
2022-08-17T21:53:12.970Z,9.60
2022-08-17T21:55:42.185Z,10.13
2022-08-17T21:58:24.635Z,9.68
2022-08-17T22:01:07.441Z,10.13
2022-08-17T22:03:35.566Z,9.88
2022-08-17T22:06:18.837Z,9.60
2022-08-17T22:08:58.848Z,10.65
2022-08-17T22:11:27.035Z,9.85
2022-08-17T22:14:02.291Z,9.68
2022-08-17T22:16:34.065Z,10.40
2022-08-17T22:19:02.089Z,10.15
2022-08-17T22:21:30.040Z,10.15
2022-08-17T22:24:04.525Z,10.63
2022-08-17T22:26:51.087Z,10.13
2022-08-17T22:29:33.845Z,11.02
2022-08-17T22:32:03.139Z,8.55
2022-08-17T22:34:31.115Z,9.25
2022-08-17T22:37:14.052Z,9.32
2022-08-17T22:39:42.156Z,9.40
2022-08-17T22:42:15.006Z,9.55
2022-08-17T22:44:48.128Z,8.55
2022-08-17T22:47:32.453Z,8.75
2022-08-17T22:50:01.485Z,8.00
2022-08-17T22:52:33.689Z,9.15
2022-08-17T22:55:20.363Z,8.53
2022-08-17T22:58:07.994Z,8.38
2022-08-17T23:00:38.590Z,9.13
2022-08-17T23:03:12.800Z,8.55
2022-08-17T23:05:43.005Z,10.23
2022-08-17T23:08:12.994Z,9.63
2022-08-17T23:10:42.131Z,8.77
2022-08-17T23:13:12.044Z,9.82
2022-08-17T23:15:40.852Z,9.05
2022-08-17T23:18:10.289Z,10.55
2022-08-17T23:20:40.172Z,9.77
2022-08-17T23:23:09.081Z,9.77
2022-08-17T23:25:37.461Z,10.15
2022-08-17T23:28:06.637Z,10.63
2022-08-17T23:30:36.830Z,9.00
2022-08-17T23:33:05.568Z,9.20
2022-08-17T23:35:38.904Z,10.25
2022-08-17T23:38:09.185Z,9.57
2022-08-17T23:40:39.587Z,9.27
2022-08-17T23:43:23.551Z,8.52
2022-08-17T23:45:53.281Z,7.95
2022-08-17T23:48:28.533Z,9.18
2022-08-17T23:51:09.309Z,8.68
2022-08-17T23:56:09.407Z,8.18
2022-08-17T23:58:39.507Z,8.68
